Time;durP1;ratioP1;P1;durP2;ratioP2;P2;SDS_P1;SDS_P2;PMS_P1;PMS_P2;Temp;Humidity;BMP_temperature;BMP_pressure;BME280_temperature;BME280_humidity;BME280_pressure;Samples;Min_cycle;Max_cycle;Signal;HPM_P1;HPM_P2
2022/12/29 00:01:55;;;;;;;36.00;20.30;;;;;;;-1.31;82.65;98832.66;87644;1307;98356;-80
2022/12/29 00:03:57;;;;;;;33.30;19.40;;;;;;;-1.27;82.64;98840.41;87661;1305;22681;-80
2022/12/29 00:06:02;;;;;;;35.20;18.90;;;;;;;-1.26;82.67;98845.23;87659;1314;22516;-81
2022/12/29 00:08:04;;;;;;;35.40;19.70;;;;;;;-1.25;82.71;98838.35;87544;1312;98851;-81
2022/12/29 00:10:08;;;;;;;34.60;19.30;;;;;;;-1.25;82.68;98836.44;87619;1317;22509;-80
2022/12/29 00:12:10;;;;;;;36.20;19.30;;;;;;;-1.24;82.75;98833.67;87777;1316;22473;-80
2022/12/29 00:16:34;;;;;;;38.70;20.10;;;;;;;-1.22;82.80;98839.36;87641;1316;22523;-80
2022/12/29 00:18:36;;;;;;;35.30;19.90;;;;;;;-1.21;82.68;98839.52;87687;1309;22509;-81
2022/12/29 00:37:02;;;;;;;44.40;25.20;;;;;;;-0.92;83.10;98835.13;87708;1288;22607;-81
2022/12/29 00:44:04;;;;;;;50.60;25.60;;;;;;;-0.83;82.91;98832.48;87674;1307;98032;-80
2022/12/29 00:46:06;;;;;;;48.20;26.00;;;;;;;-0.78;82.97;98841.96;87602;1312;22601;-80
2022/12/29 00:48:08;;;;;;;50.30;27.40;;;;;;;-0.73;82.82;98842.80;87732;1316;22527;-81
2022/12/29 00:50:10;;;;;;;51.30;27.10;;;;;;;-0.70;82.91;98842.96;87644;1296;98577;-80
2022/12/29 00:52:13;;;;;;;55.00;28.50;;;;;;;-0.67;82.70;98839.32;87648;1312;26625;-81
2022/12/29 00:54:15;;;;;;;49.40;27.70;;;;;;;-0.66;82.83;98840.00;87610;1315;22538;-81
2022/12/29 00:56:19;;;;;;;48.40;25.80;;;;;;;-0.64;82.80;98846.55;87516;1311;98910;-81
2022/12/29 00:58:21;;;;;;;43.70;23.70;;;;;;;-0.60;82.81;98844.98;87659;1312;22531;-81
2022/12/29 01:00:23;;;;;;;46.00;24.90;;;;;;;-0.59;82.75;98844.45;87587;1299;22389;-80
2022/12/29 01:02:25;;;;;;;47.90;24.30;;;;;;;-0.60;82.75;98842.03;87699;1313;98662;-81
2022/12/29 01:04:27;;;;;;;43.20;22.80;;;;;;;-0.61;82.68;98836.86;87736;1313;22535;-80
2022/12/29 01:06:30;;;;;;;43.70;22.60;;;;;;;-0.60;82.75;98835.14;87613;1316;26607;-81
2022/12/29 01:08:38;;;;;;;38.30;21.10;;;;;;;-0.60;82.80;98832.55;87540;1316;98567;-81
2022/12/29 01:10:40;;;;;;;43.80;20.60;;;;;;;-0.61;82.60;98838.95;87530;1285;260306;-81
2022/12/29 01:12:44;;;;;;;38.10;19.70;;;;;;;-0.63;82.73;98834.80;87637;1315;22480;-79
2022/12/29 01:14:46;;;;;;;40.00;18.90;;;;;;;-0.62;82.72;98833.25;87501;1306;98802;-80
2022/12/29 01:16:51;;;;;;;28.10;16.70;;;;;;;-0.61;82.74;98831.00;87515;1314;22472;-81
2022/12/29 01:18:55;;;;;;;29.50;15.70;;;;;;;-0.59;82.77;98831.51;87586;1316;22458;-81
2022/12/29 01:21:03;;;;;;;33.40;17.90;;;;;;;-0.57;82.84;98821.84;87603;1314;98322;-81
2022/12/29 01:23:05;;;;;;;34.10;18.00;;;;;;;-0.55;82.92;98817.86;87672;1311;22515;-81
2022/12/29 01:25:10;;;;;;;31.50;16.40;;;;;;;-0.54;82.87;98816.83;87640;1305;22523;-81
2022/12/29 01:27:14;;;;;;;31.10;17.40;;;;;;;-0.52;82.93;98815.95;87577;1310;98566;-80
2022/12/29 01:29:17;;;;;;;31.40;17.40;;;;;;;-0.51;82.93;98806.78;87638;1316;22444;-79
2022/12/29 01:31:19;;;;;;;34.90;19.40;;;;;;;-0.49;82.94;98808.17;87329;1311;22926;-80
2022/12/29 01:33:22;;;;;;;31.00;18.10;;;;;;;-0.47;82.74;98806.23;87634;1309;98234;-80
2022/12/29 01:35:31;;;;;;;30.90;17.70;;;;;;;-0.47;82.81;98807.98;87688;1310;22537;-80
2022/12/29 01:37:36;;;;;;;40.80;18.40;;;;;;;-0.47;82.80;98808.48;87483;1304;98813;-81
2022/12/29 01:39:38;;;;;;;31.60;18.90;;;;;;;-0.44;82.91;98805.54;87649;1317;22511;-81
2022/12/29 01:41:40;;;;;;;26.20;16.00;;;;;;;-0.44;82.86;98804.33;87771;1306;22478;-81
2022/12/29 01:44:01;;;;;;;33.40;17.70;;;;;;;-0.41;82.92;98803.45;87572;1316;98867;-81
2022/12/29 01:46:03;;;;;;;34.00;17.90;;;;;;;-0.39;82.93;98804.81;87698;1309;24436;-81
2022/12/29 01:48:10;;;;;;;27.30;14.40;;;;;;;-0.37;83.00;98806.52;87606;1300;22487;-81
2022/12/29 01:50:43;;;;;;;27.50;15.00;;;;;;;-0.36;82.82;98803.05;87448;1311;98682;-81
2022/12/29 01:52:55;;;;;;;27.40;14.90;;;;;;;-0.34;82.87;98802.53;87697;1313;22516;-80
2022/12/29 01:54:59;;;;;;;28.80;14.70;;;;;;;-0.32;82.95;98802.86;87648;1314;25395;-81
2022/12/29 01:57:07;;;;;;;37.50;16.40;;;;;;;-0.29;82.79;98805.09;87595;1317;98431;-81
2022/12/29 01:59:17;;;;;;;31.10;15.30;;;;;;;-0.27;82.82;98808.70;87690;1304;22503;-80
2022/12/29 02:01:22;;;;;;;28.50;13.90;;;;;;;-0.25;82.88;98805.39;87660;1301;22435;-81
2022/12/29 02:03:29;;;;;;;23.00;14.00;;;;;;;-0.22;82.92;98799.17;87502;1308;98092;-81
2022/12/29 02:05:42;;;;;;;29.90;14.30;;;;;;;-0.21;82.90;98797.96;87544;1311;25300;-81
2022/12/29 02:07:45;;;;;;;25.70;14.20;;;;;;;-0.20;82.95;98794.83;87568;1314;98950;-80
2022/12/29 02:09:48;;;;;;;28.20;14.30;;;;;;;-0.19;82.81;98794.48;87507;1307;22477;-82
2022/12/29 02:11:52;;;;;;;26.90;14.70;;;;;;;-0.17;82.94;98788.59;87759;1295;22595;-80
2022/12/29 02:14:28;;;;;;;23.80;14.00;;;;;;;-0.16;82.95;98786.69;87809;1314;22502;-81
2022/12/29 02:16:53;;;;;;;23.40;13.20;;;;;;;-0.15;82.99;98784.44;87919;1299;23016;-81
2022/12/29 02:18:58;;;;;;;22.60;14.00;;;;;;;-0.11;82.93;98791.98;87299;1313;22687;-80
2022/12/29 02:21:33;;;;;;;32.70;14.90;;;;;;;-0.09;82.81;98794.41;87339;1309;98377;-80
2022/12/29 02:24:08;;;;;;;28.10;13.50;;;;;;;-0.07;82.90;98791.10;87420;1314;22525;-80
2022/12/29 02:26:31;;;;;;;24.60;13.40;;;;;;;-0.07;82.82;98794.05;87319;1318;98360;-79
2022/12/29 02:28:39;;;;;;;21.10;12.70;;;;;;;-0.05;82.84;98790.91;87270;1309;22566;-81
2022/12/29 02:30:46;;;;;;;24.30;12.90;;;;;;;-0.04;82.92;98784.16;87364;1305;22550;-80
2022/12/29 02:32:56;;;;;;;24.90;13.80;;;;;;;-0.01;82.98;98783.28;87136;1321;98174;-80
2022/12/29 02:35:08;;;;;;;20.00;13.80;;;;;;;0.00;82.79;98776.71;87406;1320;22749;-80
2022/12/29 02:37:34;;;;;;;20.90;12.60;;;;;;;0.01;83.02;98767.19;87276;1314;22445;-80
2022/12/29 02:40:13;;;;;;;21.40;12.60;;;;;;;0.01;83.05;98762.55;87325;1319;22539;-81
2022/12/29 02:42:21;;;;;;;21.20;12.90;;;;;;;0.01;82.98;98754.08;87459;1307;22448;-80
2022/12/29 02:44:42;;;;;;;23.40;13.30;;;;;;;0.01;82.97;98748.55;87361;1314;97958;-80
2022/12/29 02:46:55;;;;;;;21.50;13.20;;;;;;;0.03;83.03;98750.42;87281;1306;22548;-80
2022/12/29 02:49:13;;;;;;;23.20;13.50;;;;;;;0.03;82.88;98750.77;87374;1313;22524;-80
2022/12/29 02:51:33;;;;;;;20.40;12.70;;;;;;;0.04;83.04;98741.08;87385;1319;98580;-80
2022/12/29 02:55:57;;;;;;;27.70;13.70;;;;;;;0.06;82.98;98737.10;87337;1319;98301;-81
2022/12/29 02:58:22;;;;;;;25.90;13.60;;;;;;;0.07;83.08;98738.99;87743;1303;22603;-80
2022/12/29 03:00:24;;;;;;;21.30;13.20;;;;;;;0.07;83.15;98742.27;87691;1299;22489;-80
2022/12/29 03:02:58;;;;;;;21.00;13.10;;;;;;;0.08;82.95;98733.61;87618;1310;97915;-80
2022/12/29 03:05:25;;;;;;;23.10;13.70;;;;;;;0.09;82.99;98740.86;87477;1308;24494;-80
2022/12/29 03:07:38;;;;;;;27.00;13.80;;;;;;;0.09;83.00;98738.11;87447;1296;22499;-79
2022/12/29 03:09:55;;;;;;;24.50;13.80;;;;;;;0.11;83.01;98729.80;87815;1304;22558;-81
2022/12/29 03:12:24;;;;;;;22.70;13.20;;;;;;;0.12;83.15;98732.38;87722;1304;22622;-80
2022/12/29 03:17:36;;;;;;;22.10;12.40;;;;;;;0.15;82.94;98722.84;87610;1310;22521;-80
2022/12/29 03:19:47;;;;;;;21.70;14.10;;;;;;;0.17;83.03;98726.10;87141;1317;22506;-80
2022/12/29 03:24:22;;;;;;;22.30;13.40;;;;;;;0.16;83.11;98725.26;87444;1313;23101;-81
2022/12/29 03:26:24;;;;;;;23.90;14.20;;;;;;;0.20;82.98;98726.59;87426;1317;97896;-81
2022/12/29 03:28:38;;;;;;;25.20;13.80;;;;;;;0.16;83.17;98721.80;88007;1308;22515;-81
2022/12/29 03:30:41;;;;;;;27.00;13.80;;;;;;;0.23;83.15;98732.61;87710;1303;22490;-81
2022/12/29 03:32:48;;;;;;;36.20;20.50;;;;;;;0.23;83.12;98736.92;87928;1313;97956;-81
2022/12/29 03:34:50;;;;;;;47.00;25.00;;;;;;;0.24;83.07;98732.25;88034;1313;22577;-80
2022/12/29 03:37:07;;;;;;;48.00;25.00;;;;;;;0.26;82.83;98733.09;87951;1309;22510;-81
2022/12/29 03:39:11;;;;;;;53.90;26.10;;;;;;;0.26;83.02;98734.83;87772;1309;98177;-80
2022/12/29 03:41:20;;;;;;;47.50;24.20;;;;;;;0.29;82.85;98736.35;87909;1314;22340;-80
2022/12/29 03:43:23;;;;;;;47.10;25.00;;;;;;;0.30;83.01;98733.22;87501;1313;22519;-80
2022/12/29 03:45:25;;;;;;;38.70;22.30;;;;;;;0.31;82.88;98730.63;87169;1310;98201;-80
2022/12/29 03:47:27;;;;;;;39.80;23.30;;;;;;;0.29;82.78;98719.41;87569;1314;23383;-80
2022/12/29 03:49:29;;;;;;;47.50;25.50;;;;;;;0.23;82.88;98706.69;87346;1312;22532;-81
2022/12/29 03:51:31;;;;;;;41.40;24.10;;;;;;;0.33;82.80;98727.66;87438;1313;98768;-80
2022/12/29 03:53:33;;;;;;;47.90;24.50;;;;;;;0.32;82.88;98734.58;87616;1298;23060;-81
2022/12/29 03:55:37;;;;;;;40.60;22.50;;;;;;;0.32;82.84;98729.58;87641;1313;22907;-80
2022/12/29 03:57:39;;;;;;;40.40;22.50;;;;;;;0.31;82.86;98729.42;87462;1311;97922;-79
2022/12/29 03:59:41;;;;;;;38.80;20.40;;;;;;;0.32;82.84;98738.91;87605;1291;22950;-81
2022/12/29 04:01:43;;;;;;;41.30;20.80;;;;;;;0.30;82.75;98737.54;87825;1307;24209;-80
2022/12/29 04:03:44;;;;;;;38.00;19.40;;;;;;;0.28;82.79;98732.20;87314;1313;22967;-80
2022/12/29 04:05:46;;;;;;;33.70;19.00;;;;;;;0.29;82.83;98734.10;87618;1316;22473;-79
2022/12/29 04:07:50;;;;;;;31.50;16.90;;;;;;;0.27;82.80;98724.79;87266;1309;98161;-81
2022/12/29 04:09:52;;;;;;;30.90;18.00;;;;;;;0.27;82.84;98729.46;87632;1316;22701;-80
2022/12/29 04:11:54;;;;;;;28.80;16.90;;;;;;;0.27;82.96;98738.96;87713;1313;22517;-81
2022/12/29 04:13:56;;;;;;;32.30;16.60;;;;;;;0.23;82.76;98738.14;87489;1302;98124;-80
2022/12/29 04:15:57;;;;;;;36.50;16.80;;;;;;;0.26;82.68;98743.11;87697;1316;22518;-80
2022/12/29 04:17:59;;;;;;;31.90;17.50;;;;;;;0.26;82.95;98745.89;87520;1302;25907;-80
2022/12/29 04:22:22;;;;;;;29.10;16.20;;;;;;;0.25;82.72;98732.94;87597;1307;22615;-81
2022/12/29 04:24:23;;;;;;;28.50;15.20;;;;;;;0.25;82.76;98733.61;87604;1313;22350;-81
2022/12/29 04:26:25;;;;;;;33.30;15.80;;;;;;;0.23;82.83;98728.12;87564;1303;97891;-80
2022/12/29 04:28:28;;;;;;;30.20;16.00;;;;;;;0.22;82.82;98723.12;87305;1302;23680;-79
2022/12/29 04:30:30;;;;;;;26.60;15.60;;;;;;;0.22;82.73;98721.55;87306;1316;23193;-80
2022/12/29 04:32:32;;;;;;;28.70;14.90;;;;;;;0.22;82.72;98717.77;87769;1309;27010;-79
2022/12/29 04:34:34;;;;;;;31.60;15.70;;;;;;;0.20;82.82;98716.05;87562;1294;22732;-80
2022/12/29 04:36:35;;;;;;;22.80;15.00;;;;;;;0.19;82.68;98709.85;87732;1308;22198;-81
2022/12/29 04:38:37;;;;;;;26.30;15.40;;;;;;;0.12;82.61;98700.23;87517;1310;98107;-80
2022/12/29 04:40:41;;;;;;;29.70;16.20;;;;;;;0.15;82.81;98707.30;87700;1286;22502;-80
2022/12/29 04:42:43;;;;;;;28.50;16.60;;;;;;;0.14;82.86;98701.09;87634;1309;22652;-80
2022/12/29 04:44:45;;;;;;;32.10;17.00;;;;;;;0.12;82.75;98699.02;87531;1311;98042;-80
2022/12/29 04:46:46;;;;;;;31.10;15.80;;;;;;;0.12;82.68;98697.30;87650;1310;23677;-79
2022/12/29 04:48:48;;;;;;;30.80;16.20;;;;;;;0.11;82.87;98694.89;87318;1314;22502;-80
2022/12/29 04:50:50;;;;;;;29.10;17.30;;;;;;;0.11;82.55;98694.73;87715;1310;98160;-79
2022/12/29 04:52:52;;;;;;;28.70;16.90;;;;;;;0.10;82.80;98694.21;87534;1310;22537;-80
2022/12/29 04:54:53;;;;;;;31.20;16.90;;;;;;;0.09;82.83;98695.25;87360;1311;22541;-80
2022/12/29 04:56:55;;;;;;;27.10;16.60;;;;;;;0.06;82.74;98691.33;87616;1301;97936;-80
2022/12/29 04:58:57;;;;;;;27.20;16.00;;;;;;;0.04;82.79;98693.06;87681;1300;22782;-81
2022/12/29 05:00:59;;;;;;;27.00;16.60;;;;;;;0.02;82.84;98695.69;87605;1303;22642;-81
2022/12/29 05:03:01;;;;;;;27.10;16.00;;;;;;;-0.00;82.68;98693.13;87669;1307;98715;-80
2022/12/29 05:05:05;;;;;;;32.00;16.30;;;;;;;-0.03;82.64;98694.34;87538;1304;22515;-80
2022/12/29 05:07:07;;;;;;;31.70;16.80;;;;;;;-0.04;82.74;98695.06;87759;1309;22620;-80
2022/12/29 05:09:09;;;;;;;30.00;15.40;;;;;;;-0.05;82.85;98694.55;87540;1312;98387;-80
2022/12/29 05:11:11;;;;;;;28.40;14.90;;;;;;;-0.05;82.73;98694.71;87870;1310;23855;-81
2022/12/29 05:13:13;;;;;;;25.30;14.80;;;;;;;-0.04;82.93;98685.90;87619;1311;22445;-81
2022/12/29 05:15:15;;;;;;;24.20;14.10;;;;;;;-0.11;82.76;98671.11;87726;1308;98102;-81
2022/12/29 05:17:16;;;;;;;27.30;15.00;;;;;;;-0.02;82.84;98688.47;87600;1294;22501;-81
2022/12/29 05:19:18;;;;;;;22.20;14.00;;;;;;;-0.02;82.79;98682.23;87598;1309;23422;-80
2022/12/29 05:21:20;;;;;;;25.00;13.70;;;;;;;-0.02;82.68;98677.59;87651;1295;98290;-80
2022/12/29 05:23:22;;;;;;;26.50;13.60;;;;;;;-0.04;82.68;98676.41;87803;1309;22334;-80
2022/12/29 05:25:23;;;;;;;23.80;13.40;;;;;;;-0.06;82.83;98682.46;88190;1307;22508;-80
2022/12/29 05:27:25;;;;;;;33.20;17.40;;;;;;;-0.09;82.71;98679.55;87845;1316;98650;-81
2022/12/29 05:29:27;;;;;;;31.80;16.70;;;;;;;-0.07;82.82;98681.09;88194;1297;22496;-81
2022/12/29 05:31:29;;;;;;;27.30;15.90;;;;;;;-0.09;82.71;98683.71;88325;1307;22555;-82
2022/12/29 05:33:31;;;;;;;30.10;16.20;;;;;;;-0.07;82.73;98692.48;88259;1300;98121;-81
2022/12/29 05:35:33;;;;;;;23.80;14.50;;;;;;;-0.06;82.97;98688.51;88148;1305;22770;-80
2022/12/29 05:37:35;;;;;;;24.50;14.40;;;;;;;-0.04;82.79;98690.73;88135;1307;22032;-81
2022/12/29 05:39:36;;;;;;;35.60;13.90;;;;;;;-0.03;82.65;98690.38;87973;1310;98288;-80
2022/12/29 05:41:38;;;;;;;31.10;15.30;;;;;;;-0.09;82.83;98677.66;88200;1301;26591;-80
2022/12/29 05:43:40;;;;;;;30.00;16.10;;;;;;;-0.04;82.84;98682.45;87710;1310;22560;-80
2022/12/29 05:45:41;;;;;;;28.90;15.20;;;;;;;-0.04;82.99;98682.63;87605;1309;98089;-79
2022/12/29 05:47:43;;;;;;;23.10;14.90;;;;;;;-0.05;82.95;98688.15;87618;1317;22584;-79
2022/12/29 05:49:45;;;;;;;21.00;14.10;;;;;;;-0.07;82.94;98695.95;87620;1301;22516;-79
2022/12/29 05:51:46;;;;;;;27.50;14.40;;;;;;;-0.22;82.95;98674.16;87531;1314;98115;-79
2022/12/29 05:53:48;;;;;;;22.20;12.70;;;;;;;-0.10;82.66;98701.34;87726;1310;24240;-78
2022/12/29 05:55:50;;;;;;;19.70;12.30;;;;;;;-0.11;82.87;98694.27;87338;1306;22444;-80
2022/12/29 05:57:52;;;;;;;20.80;12.40;;;;;;;-0.11;82.95;98692.18;87381;1309;97890;-80
2022/12/29 05:59:54;;;;;;;21.30;12.90;;;;;;;-0.11;82.84;98690.98;87651;1281;22765;-79
2022/12/29 06:01:55;;;;;;;20.70;11.70;;;;;;;-0.12;82.89;98687.02;87492;1310;98276;-80
2022/12/29 06:03:57;;;;;;;22.40;12.60;;;;;;;-0.13;82.95;98681.67;87371;1310;22482;-80
2022/12/29 06:05:59;;;;;;;26.20;12.20;;;;;;;-0.14;83.00;98679.60;87526;1297;22509;-78
2022/12/29 06:08:01;;;;;;;21.80;12.00;;;;;;;-0.27;82.83;98659.02;87177;1306;98430;-80
2022/12/29 06:10:05;;;;;;;19.40;12.70;;;;;;;-0.22;82.96;98662.58;87521;1310;22504;-80
2022/12/29 06:12:07;;;;;;;19.60;11.10;;;;;;;-0.20;82.86;98667.74;87582;1313;22697;-80
2022/12/29 06:14:09;;;;;;;19.90;12.30;;;;;;;-0.21;82.91;98668.11;87454;1311;98700;-80
2022/12/29 06:16:10;;;;;;;24.50;12.20;;;;;;;-0.22;82.82;98674.33;87641;1308;24211;-79
2022/12/29 06:18:12;;;;;;;53.90;12.10;;;;;;;-0.25;83.01;98669.69;87450;1285;22521;-79
2022/12/29 06:20:14;;;;;;;42.80;12.50;;;;;;;-0.25;82.91;98673.84;87457;1284;98193;-79
2022/12/29 06:22:16;;;;;;;50.30;14.40;;;;;;;-0.26;82.89;98678.51;87604;1292;22464;-78
2022/12/29 06:24:18;;;;;;;42.40;13.30;;;;;;;-0.28;82.91;98681.11;87383;1314;22998;-80
2022/12/29 06:26:20;;;;;;;32.70;12.40;;;;;;;-0.29;83.04;98682.00;87319;1311;97990;-79
2022/12/29 06:28:22;;;;;;;20.40;12.90;;;;;;;-0.32;82.95;98680.80;87425;1304;23191;-80
2022/12/29 06:30:24;;;;;;;34.30;13.20;;;;;;;-0.43;82.91;98663.48;87081;1296;22585;-80
2022/12/29 06:32:31;;;;;;;31.50;12.50;;;;;;;-0.38;82.93;98677.75;87066;1310;98410;-79
2022/12/29 06:34:32;;;;;;;32.80;14.00;;;;;;;-0.41;82.93;98677.09;87191;1302;22653;-79
2022/12/29 06:36:37;;;;;;;27.40;14.00;;;;;;;-0.42;82.99;98676.40;87074;1307;24282;-79
2022/12/29 06:38:38;;;;;;;26.00;12.90;;;;;;;-0.50;82.78;98664.58;87121;1310;98250;-79
2022/12/29 06:40:44;;;;;;;23.20;13.80;;;;;;;-0.46;83.08;98671.10;87076;1311;22770;-79
2022/12/29 06:42:46;;;;;;;31.70;16.90;;;;;;;-0.59;82.97;98655.16;87161;1311;22522;-78
2022/12/29 06:44:48;;;;;;;34.40;19.10;;;;;;;-0.47;83.13;98681.80;87179;1309;98055;-80
2022/12/29 06:46:50;;;;;;;42.90;20.90;;;;;;;-0.47;82.98;98680.25;87578;1292;22555;-80
2022/12/29 06:48:52;;;;;;;37.20;22.50;;;;;;;-0.46;83.13;98677.66;87581;1292;23700;-79
2022/12/29 06:51:03;;;;;;;46.80;20.30;;;;;;;-0.45;83.24;98670.92;87411;1300;98530;-78
2022/12/29 06:53:05;;;;;;;42.70;20.10;;;;;;;-0.47;83.14;98660.41;87310;1310;22488;-79
2022/12/29 06:55:07;;;;;;;35.20;20.20;;;;;;;-0.45;83.02;98658.33;87111;1311;22682;-79
2022/12/29 06:57:10;;;;;;;41.20;22.60;;;;;;;-0.47;82.98;98658.50;87451;1305;98064;-79
2022/12/29 06:59:12;;;;;;;60.50;22.40;;;;;;;-0.46;83.27;98656.77;87218;1310;23174;-79
2022/12/29 07:01:13;;;;;;;51.10;24.10;;;;;;;-0.44;83.07;98659.16;87297;1277;22519;-79
2022/12/29 07:03:18;;;;;;;37.90;22.60;;;;;;;-0.42;83.25;98664.50;87466;1309;98313;-79
2022/12/29 07:05:19;;;;;;;46.50;22.80;;;;;;;-0.41;83.29;98669.14;87433;1310;22420;-79
2022/12/29 07:07:21;;;;;;;43.60;21.10;;;;;;;-0.38;83.18;98672.76;87424;1310;22560;-79
2022/12/29 07:09:23;;;;;;;47.50;22.40;;;;;;;-0.37;83.35;98669.11;87092;1304;98828;-78
2022/12/29 07:11:25;;;;;;;48.80;22.40;;;;;;;-0.34;83.36;98666.33;87173;1288;23882;-79
2022/12/29 07:13:32;;;;;;;47.80;20.90;;;;;;;-0.33;83.40;98668.91;87240;1295;23761;-79
2022/12/29 07:15:37;;;;;;;38.80;19.60;;;;;;;-0.32;83.27;98671.83;87077;1306;99405;-78
2022/12/29 07:17:39;;;;;;;37.60;19.40;;;;;;;-0.31;83.31;98679.77;87124;1313;22492;-78
2022/12/29 07:19:41;;;;;;;31.90;19.50;;;;;;;-0.29;83.24;98681.14;87401;1309;24032;-78
2022/12/29 07:21:45;;;;;;;33.50;18.40;;;;;;;-0.29;83.28;98684.75;87158;1310;99093;-78
2022/12/29 07:23:51;;;;;;;34.60;20.00;;;;;;;-0.28;83.47;98693.55;87298;1310;22564;-78
2022/12/29 07:26:06;;;;;;;32.80;19.20;;;;;;;-0.25;83.31;98694.39;87120;1293;22516;-79
2022/12/29 07:28:08;;;;;;;36.40;17.80;;;;;;;-0.22;83.22;98691.08;87198;1309;22534;-78
2022/12/29 07:30:11;;;;;;;32.60;18.50;;;;;;;-0.21;83.23;98687.95;87142;1311;22592;-78
2022/12/29 07:32:13;;;;;;;30.80;18.10;;;;;;;-0.20;83.49;98677.92;87527;1310;98884;-77
2022/12/29 07:34:14;;;;;;;32.40;18.00;;;;;;;-0.20;83.38;98675.52;87183;1289;22584;-79
2022/12/29 07:36:17;;;;;;;29.90;18.70;;;;;;;-0.20;83.40;98670.85;87269;1310;22515;-78
2022/12/29 07:38:19;;;;;;;36.00;18.70;;;;;;;-0.18;83.22;98665.48;87059;1304;98647;-78
2022/12/29 07:40:20;;;;;;;37.20;17.70;;;;;;;-0.18;83.36;98662.38;87109;1311;25335;-79
2022/12/29 07:42:22;;;;;;;51.80;23.70;;;;;;;-0.17;83.37;98664.27;87207;1310;22647;-78
2022/12/29 07:44:24;;;;;;;49.50;23.20;;;;;;;-0.19;83.30;98658.08;87177;1293;98397;-78
2022/12/29 07:46:26;;;;;;;62.60;23.50;;;;;;;-0.14;83.44;98662.16;87146;1295;22496;-78
2022/12/29 07:48:33;;;;;;;67.20;26.40;;;;;;;-0.14;83.40;98654.57;87233;1310;22528;-78
2022/12/29 07:50:36;;;;;;;59.00;28.30;;;;;;;-0.13;83.36;98650.93;87169;1302;99208;-78
2022/12/29 07:52:38;;;;;;;80.50;29.30;;;;;;;-0.13;83.29;98650.59;87321;1311;22885;-79
2022/12/29 07:54:40;;;;;;;82.40;30.20;;;;;;;-0.11;83.23;98654.54;87221;1316;22581;-79
2022/12/29 07:56:41;;;;;;;69.20;26.90;;;;;;;-0.10;83.33;98655.55;86976;1295;98245;-79
2022/12/29 07:58:43;;;;;;;59.00;28.50;;;;;;;-0.08;83.62;98658.31;87244;1307;22463;-78
2022/12/29 08:00:45;;;;;;;77.30;31.30;;;;;;;-0.08;83.38;98655.54;87096;1311;22492;-77
2022/12/29 08:02:47;;;;;;;76.00;31.20;;;;;;;-0.07;83.30;98657.95;86953;1311;98234;-79
2022/12/29 08:04:49;;;;;;;76.80;32.40;;;;;;;-0.05;83.47;98654.83;87268;1306;22570;-78
2022/12/29 08:06:50;;;;;;;61.90;32.20;;;;;;;-0.05;83.53;98656.73;87059;1296;22585;-77
2022/12/29 08:08:52;;;;;;;83.30;39.10;;;;;;;-0.02;83.45;98660.14;87103;1303;98501;-79
2022/12/29 08:10:54;;;;;;;78.50;35.30;;;;;;;0.00;83.51;98663.40;87119;1294;22504;-79
2022/12/29 08:12:56;;;;;;;80.80;35.60;;;;;;;0.02;83.57;98659.42;87187;1290;22610;-79
2022/12/29 08:14:57;;;;;;;70.00;34.70;;;;;;;0.03;83.49;98664.41;87024;1312;99359;-77
2022/12/29 08:16:59;;;;;;;65.00;35.20;;;;;;;0.03;83.53;98662.85;87121;1301;22464;-77
2022/12/29 08:19:03;;;;;;;63.50;35.40;;;;;;;0.02;83.39;98656.98;87085;1288;22493;-77
2022/12/29 08:21:05;;;;;;;53.30;31.30;;;;;;;-0.06;83.38;98642.73;87103;1307;98304;-76
2022/12/29 08:23:07;;;;;;;61.00;31.60;;;;;;;0.04;83.51;98656.62;87190;1301;22697;-75
2022/12/29 08:25:09;;;;;;;51.80;28.50;;;;;;;0.06;83.51;98659.38;86878;1294;22485;-76
2022/12/29 08:27:11;;;;;;;36.10;21.00;;;;;;;0.10;83.59;98669.86;86903;1278;98285;-77
2022/12/29 08:29:12;;;;;;;34.70;19.30;;;;;;;0.14;83.71;98668.44;87167;1281;22491;-77
2022/12/29 08:31:14;;;;;;;31.10;18.50;;;;;;;0.19;83.49;98668.91;87209;1288;22608;-78
2022/12/29 08:33:16;;;;;;;36.40;16.70;;;;;;;0.25;83.64;98670.38;86806;1295;98043;-77
2022/12/29 08:35:18;;;;;;;18.70;13.10;;;;;;;0.28;83.72;98672.60;86779;1302;22486;-76
2022/12/29 08:37:19;;;;;;;23.40;12.80;;;;;;;0.40;83.62;98682.30;86807;1295;22663;-76
2022/12/29 08:39:21;;;;;;;46.20;14.50;;;;;;;0.48;83.44;98677.53;86729;1295;97989;-78
2022/12/29 08:41:23;;;;;;;41.80;24.40;;;;;;;0.58;83.73;98677.95;86986;1292;25572;-77
2022/12/29 08:43:27;;;;;;;36.20;16.40;;;;;;;0.70;83.53;98673.46;86722;1290;22541;-77
2022/12/29 08:45:32;;;;;;;37.70;20.10;;;;;;;0.75;83.61;98667.34;87510;1288;98174;-80
2022/12/29 08:47:34;;;;;;;51.10;17.80;;;;;;;0.87;83.49;98664.77;87335;1303;22524;-80
2022/12/29 08:49:36;;;;;;;34.90;17.00;;;;;;;0.97;83.76;98667.73;87533;1301;22642;-80
2022/12/29 08:51:41;;;;;;;32.60;17.10;;;;;;;1.06;83.71;98671.41;87424;1306;97984;-82
2022/12/29 08:53:48;;;;;;;34.00;16.90;;;;;;;1.15;83.54;98671.45;87181;1316;21677;-80
2022/12/29 08:56:00;;;;;;;34.00;15.30;;;;;;;1.26;83.72;98667.81;87125;1309;25315;-80
2022/12/29 08:58:01;;;;;;;;;;;;;;;1.33;83.76;98657.32;87355;1301;97745;-80
2022/12/29 09:00:04;;;;;;;51.40;24.30;;;;;;;1.48;83.76;98669.37;87392;1300;22569;-80
2022/12/29 09:02:11;;;;;;;44.10;25.50;;;;;;;1.56;83.51;98658.50;87451;1310;98240;-81
2022/12/29 09:04:13;;;;;;;50.90;27.50;;;;;;;1.63;83.51;98643.32;87541;1303;22758;-83
2022/12/29 09:06:17;;;;;;;47.80;27.10;;;;;;;1.80;83.64;98645.98;87581;1295;22441;-81
2022/12/29 09:08:20;;;;;;;59.30;33.00;;;;;;;1.97;83.70;98655.52;87312;1311;98042;-81
2022/12/29 09:10:22;;;;;;;52.30;25.90;;;;;;;2.06;83.34;98654.33;87334;1293;22528;-80
2022/12/29 09:12:24;;;;;;;47.70;23.90;;;;;;;2.12;83.42;98654.04;87483;1295;25304;-78
2022/12/29 09:14:26;;;;;;;44.50;22.40;;;;;;;2.17;83.64;98651.52;87343;1294;98096;-81
2022/12/29 09:16:28;;;;;;;38.30;22.50;;;;;;;2.30;83.37;98646.06;87650;1300;22517;-80
2022/12/29 09:18:31;;;;;;;45.50;24.60;;;;;;;2.37;83.19;98642.27;87412;1295;23079;-81
2022/12/29 09:20:33;;;;;;;42.60;25.10;;;;;;;2.36;83.33;98629.48;87289;1301;98565;-81
2022/12/29 09:22:36;;;;;;;55.10;21.10;;;;;;;2.58;83.65;98627.44;87271;1295;25309;-81
2022/12/29 09:24:38;;;;;;;40.20;16.70;;;;;;;2.77;83.67;98621.67;87297;1281;22847;-79
2022/12/29 09:26:40;;;;;;;46.90;17.10;;;;;;;2.95;83.48;98616.05;87210;1278;98168;-78
2022/12/29 09:28:44;;;;;;;41.40;17.10;;;;;;;3.03;83.00;98621.41;86994;1295;22502;-78
2022/12/29 09:30:47;;;;;;;25.30;12.30;;;;;;;3.07;83.05;98623.92;87014;1288;22618;-78
2022/12/29 09:32:49;;;;;;;27.50;11.10;;;;;;;3.11;82.78;98623.30;86796;1280;97903;-78
2022/12/29 09:34:51;;;;;;;22.30;11.30;;;;;;;3.24;82.66;98623.52;86899;1285;22495;-78
2022/12/29 09:36:53;;;;;;;20.50;9.80;;;;;;;3.42;82.77;98625.85;86947;1278;22739;-79
2022/12/29 09:38:54;;;;;;;19.30;9.70;;;;;;;3.59;82.52;98621.27;86825;1286;97814;-77
2022/12/29 09:41:11;;;;;;;20.40;9.60;;;;;;;3.62;82.48;98600.86;87326;1295;22469;-79
2022/12/29 09:43:33;;;;;;;20.30;8.40;;;;;;;3.83;82.62;98616.83;87100;1309;26470;-77
2022/12/29 09:45:46;;;;;;;17.90;8.70;;;;;;;3.98;82.36;98621.46;87059;1282;97721;-77
2022/12/29 09:47:48;;;;;;;17.20;9.10;;;;;;;4.13;82.16;98619.34;87060;1293;22708;-76
2022/12/29 09:49:59;;;;;;;18.90;8.80;;;;;;;4.26;82.14;98627.81;87106;1285;22511;-77
2022/12/29 09:52:11;;;;;;;19.70;9.40;;;;;;;4.41;82.09;98631.58;86860;1287;97812;-76
2022/12/29 09:54:34;;;;;;;13.40;8.70;;;;;;;4.56;82.03;98629.92;87083;1285;22524;-77
2022/12/29 09:56:37;;;;;;;18.50;8.50;;;;;;;4.76;81.96;98631.41;87085;1278;97688;-76
2022/12/29 09:58:44;;;;;;;23.10;8.10;;;;;;;4.95;81.90;98626.85;86853;1288;23723;-77
2022/12/29 10:00:56;;;;;;;16.60;7.90;;;;;;;5.26;81.96;98625.50;86997;1309;22509;-78
2022/12/29 10:03:18;;;;;;;14.10;8.40;;;;;;;5.68;81.78;98627.27;87006;1287;98348;-76
2022/12/29 10:06:06;;;;;;;16.10;9.60;;;;;;;6.09;81.57;98628.69;87056;1280;22639;-77
2022/12/29 10:08:48;;;;;;;15.00;9.30;;;;;;;6.40;81.03;98621.46;87009;1292;22504;-76
2022/12/29 10:11:04;;;;;;;13.30;9.10;;;;;;;6.68;81.01;98614.14;86944;1295;22471;-77
2022/12/29 10:13:31;;;;;;;15.20;9.40;;;;;;;6.82;80.22;98606.63;86722;1280;22514;-79
2022/12/29 10:15:57;;;;;;;18.50;9.70;;;;;;;6.82;80.47;98609.04;86989;1301;100431;-77